createdAt,value
2018-07-08T00:02:11.866Z,10.73
2018-07-08T00:04:41.994Z,11.27
2018-07-08T00:07:11.866Z,11.47
2018-07-08T00:09:42.338Z,11.20
2018-07-08T00:12:12.064Z,11.63
2018-07-08T00:14:41.684Z,11.50
2018-07-08T00:17:11.538Z,11.00
2018-07-08T00:19:41.187Z,10.47
2018-07-08T00:22:11.263Z,11.30
2018-07-08T00:24:41.269Z,11.90
2018-07-08T00:27:11.239Z,12.20
2018-07-08T00:29:40.996Z,11.13
2018-07-08T00:32:10.944Z,11.30
2018-07-08T00:34:40.657Z,11.43
2018-07-08T00:37:10.786Z,10.77
2018-07-08T00:39:40.732Z,11.27
2018-07-08T00:42:10.342Z,11.20
2018-07-08T00:44:40.534Z,10.93
2018-07-08T00:47:10.278Z,11.50
2018-07-08T00:49:40.582Z,10.87
2018-07-08T00:52:10.211Z,11.20
2018-07-08T00:54:39.804Z,11.07
2018-07-08T00:57:09.911Z,11.03
2018-07-08T00:59:39.708Z,10.80
2018-07-08T01:02:09.371Z,9.60
2018-07-08T01:04:39.650Z,10.47
2018-07-08T01:07:09.774Z,10.40
2018-07-08T01:09:39.883Z,10.33
2018-07-08T01:12:09.679Z,9.93
2018-07-08T01:14:39.647Z,10.90
2018-07-08T01:17:09.324Z,11.70
2018-07-08T01:19:39.079Z,10.20
2018-07-08T01:22:09.095Z,10.20
2018-07-08T01:24:38.786Z,10.13
2018-07-08T01:27:08.475Z,10.70
2018-07-08T01:29:38.266Z,10.50
2018-07-08T01:32:08.421Z,10.83
2018-07-08T01:34:38.697Z,10.63
2018-07-08T01:37:08.534Z,9.90
2018-07-08T01:39:38.503Z,10.57
2018-07-08T01:42:08.400Z,10.30
2018-07-08T01:44:38.303Z,10.40
2018-07-08T01:47:08.572Z,11.40
2018-07-08T01:49:38.540Z,11.73
2018-07-08T01:52:08.175Z,11.70
2018-07-08T01:54:38.165Z,10.97
2018-07-08T01:57:07.875Z,11.90
2018-07-08T01:59:38.008Z,11.87
2018-07-08T02:02:07.756Z,10.70
2018-07-08T02:04:37.722Z,10.70
2018-07-08T02:07:08.070Z,9.80
2018-07-08T02:09:37.859Z,10.50
2018-07-08T02:12:09.218Z,9.97
2018-07-08T02:14:39.553Z,10.50
2018-07-08T02:17:09.399Z,10.30
2018-07-08T02:19:39.374Z,12.03
2018-07-08T02:22:09.327Z,10.83
2018-07-08T02:24:39.166Z,11.13
2018-07-08T02:27:08.801Z,12.20
2018-07-08T02:29:39.178Z,10.30
2018-07-08T02:32:08.954Z,10.67
2018-07-08T02:34:39.216Z,12.07
2018-07-08T02:37:08.954Z,12.40
2018-07-08T02:39:38.817Z,12.33
2018-07-08T02:42:08.450Z,11.93
2018-07-08T02:44:38.531Z,13.00
2018-07-08T02:47:08.550Z,12.27
2018-07-08T02:49:38.357Z,12.37
2018-07-08T02:52:08.475Z,12.17
2018-07-08T02:54:38.100Z,11.60
2018-07-08T02:57:07.635Z,12.20
2018-07-08T02:59:37.400Z,11.30
2018-07-08T03:02:07.535Z,11.60
2018-07-08T03:04:37.756Z,12.50
2018-07-08T03:07:07.761Z,11.47
2018-07-08T03:09:37.797Z,11.43
2018-07-08T03:12:07.540Z,12.43
2018-07-08T03:14:37.096Z,12.93
2018-07-08T03:17:07.255Z,12.63
2018-07-08T03:19:37.140Z,11.93
2018-07-08T03:22:07.582Z,13.63
2018-07-08T03:24:37.142Z,12.13
2018-07-08T03:27:06.777Z,12.30
2018-07-08T03:29:36.497Z,12.90
2018-07-08T03:32:06.335Z,11.97
2018-07-08T03:34:36.447Z,11.27
2018-07-08T03:37:06.652Z,13.33
2018-07-08T03:39:37.714Z,13.47
2018-07-08T03:42:07.788Z,12.73
2018-07-08T03:44:37.449Z,11.77
2018-07-08T03:47:07.232Z,11.83
2018-07-08T03:49:36.818Z,11.80
2018-07-08T03:52:07.168Z,12.80
2018-07-08T03:54:37.428Z,13.07
2018-07-08T03:57:07.049Z,13.40
2018-07-08T03:59:36.782Z,13.83
2018-07-08T04:02:06.380Z,13.87
2018-07-08T04:04:36.232Z,13.53
2018-07-08T04:07:06.474Z,13.83
2018-07-08T04:09:36.062Z,13.87
2018-07-08T04:12:06.077Z,14.90
2018-07-08T04:14:36.122Z,12.43
2018-07-08T04:17:05.935Z,13.10
2018-07-08T04:19:36.252Z,13.53
2018-07-08T04:22:06.271Z,12.93
2018-07-08T04:24:36.486Z,13.90
2018-07-08T04:27:06.125Z,12.70
2018-07-08T04:29:35.603Z,13.93
2018-07-08T04:32:05.272Z,13.67
2018-07-08T04:34:35.058Z,13.67
2018-07-08T04:37:04.964Z,14.67
2018-07-08T04:39:34.875Z,13.97
2018-07-08T04:42:04.521Z,14.13
2018-07-08T04:44:34.254Z,15.03
2018-07-08T04:47:04.203Z,15.30
2018-07-08T04:49:34.058Z,13.87
2018-07-08T04:52:04.123Z,15.73
2018-07-08T04:54:33.954Z,14.30
2018-07-08T04:57:03.555Z,14.60
2018-07-08T04:59:33.044Z,13.33
2018-07-08T05:02:03.068Z,14.80
2018-07-08T05:04:32.814Z,14.60
2018-07-08T05:07:02.907Z,14.50
2018-07-08T05:09:32.503Z,15.33
2018-07-08T05:12:02.134Z,16.00
2018-07-08T05:14:32.563Z,14.70
2018-07-08T05:17:02.470Z,15.60
2018-07-08T05:19:32.251Z,14.77
2018-07-08T05:22:02.602Z,15.17
2018-07-08T05:24:32.330Z,15.43
2018-07-08T05:27:02.437Z,14.53
2018-07-08T05:29:31.961Z,14.63
2018-07-08T05:32:02.553Z,15.80
2018-07-08T05:34:32.609Z,14.20
2018-07-08T05:37:02.290Z,14.23
2018-07-08T05:39:32.626Z,15.13
2018-07-08T05:42:02.328Z,13.83
2018-07-08T05:44:32.275Z,14.80
2018-07-08T05:47:02.169Z,13.80
2018-07-08T05:49:32.504Z,16.60
2018-07-08T05:52:02.280Z,14.60
2018-07-08T05:54:32.270Z,14.93
2018-07-08T05:57:02.198Z,14.00
2018-07-08T05:59:31.871Z,14.00
2018-07-08T06:02:01.447Z,14.47
2018-07-08T06:04:31.739Z,14.23
2018-07-08T06:07:01.364Z,14.23
2018-07-08T06:09:31.918Z,15.60
2018-07-08T06:12:01.695Z,15.40
2018-07-08T06:14:31.882Z,14.93
2018-07-08T06:17:01.922Z,15.43
2018-07-08T06:19:31.466Z,14.83
2018-07-08T06:22:01.396Z,14.67
2018-07-08T06:24:31.730Z,15.90
2018-07-08T06:27:01.287Z,14.83
2018-07-08T06:29:31.173Z,13.90
2018-07-08T06:32:00.837Z,13.77
2018-07-08T06:34:30.575Z,13.87
2018-07-08T06:37:00.365Z,12.63
2018-07-08T06:39:30.393Z,13.47
2018-07-08T06:42:00.211Z,14.50
2018-07-08T06:44:30.545Z,13.20
2018-07-08T06:47:00.538Z,13.93
2018-07-08T06:49:30.601Z,14.17
2018-07-08T06:52:00.334Z,14.20
2018-07-08T06:54:30.055Z,13.27
2018-07-08T06:57:00.048Z,14.30
2018-07-08T06:59:29.604Z,14.37
2018-07-08T07:01:59.159Z,13.70
2018-07-08T07:04:29.470Z,14.70
2018-07-08T07:06:59.558Z,14.90
2018-07-08T07:09:29.787Z,16.13
2018-07-08T07:11:59.537Z,15.63
2018-07-08T07:14:29.255Z,16.47
2018-07-08T07:16:59.571Z,15.03
2018-07-08T07:19:29.277Z,16.30
2018-07-08T07:21:59.330Z,13.37
2018-07-08T07:24:29.616Z,16.17
2018-07-08T07:26:59.291Z,15.37
2018-07-08T07:29:29.141Z,12.57
2018-07-08T07:31:59.019Z,11.93
2018-07-08T07:34:28.954Z,11.77
2018-07-08T07:36:59.092Z,12.20
2018-07-08T07:39:28.819Z,12.80
2018-07-08T07:41:59.104Z,13.40
2018-07-08T07:44:29.033Z,13.67
2018-07-08T07:46:59.548Z,13.07
2018-07-08T07:49:29.340Z,12.63
2018-07-08T07:51:59.168Z,11.13
2018-07-08T07:54:28.991Z,11.53
2018-07-08T07:56:58.502Z,11.17
2018-07-08T07:59:28.047Z,10.00
2018-07-08T08:01:57.663Z,10.63
2018-07-08T08:04:27.732Z,10.07
2018-07-08T08:06:57.451Z,10.67
2018-07-08T08:09:28.000Z,10.37
2018-07-08T08:11:57.748Z,9.87
2018-07-08T08:14:27.903Z,10.40
2018-07-08T08:16:57.599Z,10.60
2018-07-08T08:19:27.300Z,10.70
2018-07-08T08:21:57.402Z,10.80
2018-07-08T08:24:27.244Z,11.10
2018-07-08T08:26:57.216Z,10.27
2018-07-08T08:29:26.847Z,10.83
2018-07-08T08:31:56.467Z,11.23
2018-07-08T08:35:01.521Z,11.30
2018-07-08T08:37:33.284Z,11.40
2018-07-08T08:40:03.822Z,11.10
2018-07-08T08:42:33.625Z,11.07
2018-07-08T08:45:04.053Z,11.10
2018-07-08T08:47:34.379Z,9.90
2018-07-08T08:50:04.512Z,11.83
2018-07-08T08:52:34.935Z,10.93
2018-07-08T08:55:05.195Z,10.83
2018-07-08T08:57:34.860Z,10.50
2018-07-08T09:00:06.612Z,12.23
2018-07-08T09:02:36.547Z,13.83
2018-07-08T09:05:06.276Z,15.03
2018-07-08T09:07:36.549Z,17.27
2018-07-08T09:10:06.426Z,18.07
2018-07-08T09:12:36.859Z,17.60
2018-07-08T09:15:06.809Z,17.00
2018-07-08T09:17:37.127Z,16.17
2018-07-08T09:20:06.967Z,17.43
2018-07-08T09:22:36.574Z,17.70
2018-07-08T09:25:07.071Z,18.00
2018-07-08T09:27:36.563Z,19.23
2018-07-08T09:30:06.227Z,19.67
2018-07-08T09:32:36.586Z,25.50
2018-07-08T09:35:06.559Z,28.43
2018-07-08T09:37:36.152Z,31.87
2018-07-08T09:40:06.259Z,34.23
2018-07-08T09:42:36.485Z,33.80
2018-07-08T09:45:06.625Z,35.33
2018-07-08T09:47:36.286Z,33.30
2018-07-08T09:50:06.479Z,30.73
2018-07-08T09:52:36.332Z,33.33
2018-07-08T09:55:05.995Z,30.27
2018-07-08T09:57:36.023Z,28.90
2018-07-08T10:00:06.162Z,23.13
2018-07-08T10:02:36.303Z,18.77
2018-07-08T10:05:06.164Z,18.13
2018-07-08T10:07:36.059Z,16.47
2018-07-08T10:10:05.855Z,15.87
2018-07-08T10:12:35.575Z,14.23
2018-07-08T10:15:05.720Z,15.97
2018-07-08T10:17:36.397Z,12.57
2018-07-08T10:20:06.560Z,14.47
2018-07-08T10:22:36.360Z,13.63
2018-07-08T10:25:06.713Z,13.80
2018-07-08T10:28:20.882Z,13.77
2018-07-08T10:30:50.958Z,15.20
2018-07-08T10:33:20.735Z,12.17
2018-07-08T10:35:57.057Z,13.60
2018-07-08T10:38:26.710Z,11.37
2018-07-08T10:40:56.339Z,11.50
2018-07-08T10:43:26.392Z,12.87
2018-07-08T10:45:56.186Z,11.53
2018-07-08T10:48:26.068Z,11.57
2018-07-08T10:50:55.847Z,10.90
2018-07-08T10:53:25.979Z,10.77
2018-07-08T10:55:55.730Z,11.53
2018-07-08T10:58:25.388Z,10.67
2018-07-08T11:00:55.370Z,11.87
2018-07-08T11:03:25.394Z,13.53
2018-07-08T11:05:55.659Z,11.30
2018-07-08T11:08:25.663Z,10.90
2018-07-08T11:10:55.323Z,10.70
2018-07-08T11:13:25.086Z,13.00
2018-07-08T11:15:54.963Z,11.17
2018-07-08T11:18:25.210Z,9.17
2018-07-08T11:20:55.053Z,9.60
2018-07-08T11:23:24.733Z,9.40
2018-07-08T11:25:55.190Z,10.43
2018-07-08T11:28:24.708Z,10.00
2018-07-08T11:30:54.304Z,10.47
2018-07-08T11:33:24.268Z,8.63
2018-07-08T11:35:53.955Z,9.07
2018-07-08T11:38:23.898Z,9.07
2018-07-08T11:40:53.827Z,7.33
2018-07-08T11:43:23.799Z,6.87
2018-07-08T11:45:53.734Z,7.53
2018-07-08T11:48:23.285Z,8.30
2018-07-08T11:50:53.098Z,7.80
2018-07-08T11:53:22.987Z,6.60
2018-07-08T11:55:52.954Z,6.53
2018-07-08T11:58:22.879Z,6.73
2018-07-08T12:00:52.462Z,6.93
2018-07-08T12:03:22.015Z,7.40
2018-07-08T12:05:51.814Z,7.33
2018-07-08T12:08:21.802Z,7.43
2018-07-08T12:10:51.715Z,7.77
2018-07-08T12:13:21.474Z,7.13
2018-07-08T12:15:51.018Z,6.83
2018-07-08T12:18:21.269Z,6.80
2018-07-08T12:20:50.865Z,6.75
2018-07-08T12:23:20.579Z,6.83
2018-07-08T12:25:50.782Z,7.37
2018-07-08T12:28:20.559Z,5.83
2018-07-08T12:30:50.514Z,5.95
2018-07-08T12:33:20.045Z,5.25
2018-07-08T12:35:49.917Z,5.42
2018-07-08T12:38:20.282Z,5.37
2018-07-08T12:40:50.096Z,4.10
2018-07-08T12:43:19.694Z,4.65
2018-07-08T12:45:49.302Z,3.98
2018-07-08T12:48:19.234Z,5.60
2018-07-08T12:50:48.961Z,4.33
2018-07-08T12:53:18.537Z,3.98
2018-07-08T12:55:49.048Z,4.00
2018-07-08T12:58:18.542Z,4.10
2018-07-08T13:00:48.099Z,4.12
2018-07-08T13:03:17.954Z,3.98
2018-07-08T13:05:47.804Z,4.20
2018-07-08T13:08:17.348Z,4.92
2018-07-08T13:10:47.660Z,4.28
2018-07-08T13:13:17.193Z,4.17
2018-07-08T13:15:47.127Z,4.53
2018-07-08T13:18:17.273Z,4.22
2018-07-08T13:20:46.996Z,3.67
2018-07-08T13:23:16.540Z,3.90
2018-07-08T13:25:46.851Z,4.22
2018-07-08T13:28:16.478Z,7.40
2018-07-08T13:30:45.971Z,4.83
2018-07-08T13:33:15.582Z,7.10
2018-07-08T13:35:45.193Z,7.13
2018-07-08T13:38:14.973Z,8.83
2018-07-08T13:40:45.067Z,9.00
2018-07-08T13:43:14.794Z,11.27
2018-07-08T13:45:44.686Z,11.57
2018-07-08T13:48:14.912Z,9.10
2018-07-08T13:50:44.556Z,9.77
2018-07-08T13:53:14.638Z,11.03
2018-07-08T13:55:45.066Z,10.73
2018-07-08T13:58:14.702Z,9.50
2018-07-08T14:00:44.407Z,9.50
2018-07-08T14:03:14.160Z,9.87
2018-07-08T14:05:44.158Z,10.70
2018-07-08T14:08:13.691Z,11.10
2018-07-08T14:10:43.790Z,10.93
2018-07-08T14:13:13.484Z,11.73
2018-07-08T14:15:43.818Z,11.23
2018-07-08T14:18:13.720Z,11.67
2018-07-08T14:20:44.288Z,14.63
2018-07-08T14:23:13.966Z,13.77
2018-07-08T14:25:43.587Z,14.50
2018-07-08T14:28:13.259Z,15.20
2018-07-08T14:30:42.946Z,16.33
2018-07-08T14:33:13.053Z,12.53
2018-07-08T14:35:42.724Z,12.37
2018-07-08T14:38:12.275Z,12.50
2018-07-08T14:40:42.506Z,17.83
2018-07-08T14:43:12.119Z,17.27
2018-07-08T14:45:41.878Z,13.57
2018-07-08T14:48:12.052Z,10.70
2018-07-08T14:50:41.955Z,11.83
2018-07-08T14:53:11.642Z,11.60
2018-07-08T14:55:41.347Z,14.27
2018-07-08T14:58:11.025Z,10.43
2018-07-08T15:00:40.908Z,9.23
2018-07-08T15:03:10.848Z,10.53
2018-07-08T15:05:40.798Z,11.20
2018-07-08T15:08:11.358Z,10.73
2018-07-08T15:10:41.173Z,11.27
2018-07-08T15:13:10.815Z,12.77
2018-07-08T15:15:40.721Z,12.73
2018-07-08T15:18:10.813Z,14.07
2018-07-08T15:20:40.433Z,12.33
2018-07-08T15:23:10.740Z,12.60
2018-07-08T15:25:40.242Z,12.13
2018-07-08T15:28:10.078Z,10.40
2018-07-08T15:30:39.667Z,11.40
2018-07-08T15:33:09.354Z,10.80
2018-07-08T15:35:39.074Z,11.30
2018-07-08T15:38:08.863Z,9.37
2018-07-08T15:40:39.247Z,8.13
2018-07-08T15:43:09.152Z,9.63
2018-07-08T15:45:39.538Z,9.73
2018-07-08T15:48:09.522Z,9.27
2018-07-08T15:50:39.204Z,9.60
2018-07-08T15:53:09.610Z,9.63
2018-07-08T15:55:39.207Z,9.37
2018-07-08T15:58:08.816Z,9.37
2018-07-08T16:00:38.737Z,10.17
2018-07-08T16:03:08.479Z,8.37
2018-07-08T16:05:39.044Z,8.17
2018-07-08T16:08:08.790Z,10.23
2018-07-08T16:10:38.914Z,15.47
2018-07-08T16:13:08.662Z,13.93
2018-07-08T16:15:39.059Z,14.87
2018-07-08T16:18:08.911Z,13.50
2018-07-08T16:20:38.734Z,13.20
2018-07-08T16:23:09.003Z,14.10
2018-07-08T16:25:38.600Z,12.87
2018-07-08T16:28:08.208Z,13.57
2018-07-08T16:30:38.224Z,14.77
2018-07-08T16:33:07.879Z,13.27
2018-07-08T16:35:37.967Z,13.17
2018-07-08T16:38:08.131Z,9.10
2018-07-08T16:40:37.827Z,11.90
2018-07-08T16:43:08.206Z,11.10
2018-07-08T16:45:37.966Z,13.37
2018-07-08T16:48:07.743Z,10.17
2018-07-08T16:50:37.780Z,9.83
2018-07-08T16:53:08.115Z,10.37
2018-07-08T16:55:37.770Z,9.93
2018-07-08T16:58:07.957Z,12.03
2018-07-08T17:00:37.514Z,10.87
2018-07-08T17:03:07.754Z,13.30
2018-07-08T17:05:37.663Z,13.73
2018-07-08T17:08:07.817Z,13.90
2018-07-08T17:10:37.771Z,16.10
2018-07-08T17:13:07.308Z,15.30
2018-07-08T17:15:37.380Z,15.77
2018-07-08T17:18:07.070Z,17.53
2018-07-08T17:20:37.382Z,15.57
2018-07-08T17:23:07.175Z,16.87
2018-07-08T17:25:36.803Z,16.23
2018-07-08T17:28:06.927Z,19.53
2018-07-08T17:30:36.627Z,19.10
2018-07-08T17:33:06.551Z,15.43
2018-07-08T17:35:36.819Z,16.40
2018-07-08T17:38:06.739Z,17.63
2018-07-08T17:40:37.008Z,15.20
2018-07-08T17:43:06.624Z,15.60
2018-07-08T17:45:36.314Z,15.20
2018-07-08T17:48:06.575Z,16.33
2018-07-08T17:50:36.163Z,16.57
2018-07-08T17:53:06.376Z,16.87
2018-07-08T17:55:36.007Z,15.77
2018-07-08T17:58:05.867Z,14.77
2018-07-08T18:00:36.091Z,13.70
2018-07-08T18:03:05.739Z,13.13
2018-07-08T18:05:35.534Z,14.43
2018-07-08T18:08:05.759Z,12.90
2018-07-08T18:10:35.421Z,14.70
2018-07-08T18:13:05.818Z,14.13
2018-07-08T18:15:36.326Z,13.63
2018-07-08T18:18:06.455Z,14.17
2018-07-08T18:20:36.363Z,14.40
2018-07-08T18:23:06.078Z,16.27
2018-07-08T18:25:35.928Z,15.37
2018-07-08T18:28:05.758Z,16.00
2018-07-08T18:30:36.536Z,16.00
2018-07-08T18:33:07.070Z,15.37
2018-07-08T18:35:37.050Z,14.00
2018-07-08T18:38:07.425Z,15.10
2018-07-08T18:40:37.210Z,13.97
2018-07-08T18:43:07.337Z,14.90
2018-07-08T18:45:37.143Z,14.43
2018-07-08T18:48:06.863Z,15.20
2018-07-08T18:50:36.571Z,14.50
2018-07-08T18:53:06.127Z,15.07
2018-07-08T18:55:35.785Z,13.57
2018-07-08T18:58:05.478Z,13.27
2018-07-08T19:00:35.202Z,14.07
2018-07-08T19:03:05.619Z,13.73
2018-07-08T19:05:35.175Z,13.30
2018-07-08T19:08:05.175Z,11.27
2018-07-08T19:10:34.798Z,11.53
2018-07-08T19:13:04.388Z,12.30
2018-07-08T19:15:34.410Z,11.63
2018-07-08T19:18:04.515Z,11.87
2018-07-08T19:20:34.548Z,10.20
2018-07-08T19:23:04.229Z,11.67
2018-07-08T19:25:33.871Z,10.30
2018-07-08T19:28:03.595Z,9.80
2018-07-08T19:30:33.322Z,9.70
2018-07-08T19:33:03.497Z,10.07
2018-07-08T19:35:33.288Z,9.07
2018-07-08T19:38:02.929Z,9.93
2018-07-08T19:40:32.899Z,9.63
2018-07-08T19:43:03.447Z,8.67
2018-07-08T19:45:33.731Z,9.33
2018-07-08T19:48:03.707Z,9.17
2018-07-08T19:50:34.079Z,8.73
2018-07-08T19:53:03.747Z,8.60
2018-07-08T19:55:33.411Z,8.57
2018-07-08T19:58:03.031Z,8.40
2018-07-08T20:00:33.032Z,8.20
2018-07-08T20:03:03.247Z,9.23
2018-07-08T20:05:33.280Z,8.63
2018-07-08T20:08:02.929Z,9.13
2018-07-08T20:10:33.082Z,9.37
2018-07-08T20:13:03.003Z,9.27
2018-07-08T20:15:32.591Z,8.90
2018-07-08T20:18:02.643Z,9.77
2018-07-08T20:20:32.189Z,9.73
2018-07-08T20:23:02.345Z,9.93
2018-07-08T20:25:31.968Z,10.80
2018-07-08T20:28:01.696Z,11.60
2018-07-08T20:30:31.491Z,10.10
2018-07-08T20:33:01.505Z,10.80
2018-07-08T20:35:31.797Z,10.70
2018-07-08T20:38:01.922Z,10.10
2018-07-08T20:40:32.042Z,11.93
2018-07-08T20:43:01.768Z,11.23
2018-07-08T20:45:31.658Z,12.63
2018-07-08T20:48:01.736Z,11.57
2018-07-08T20:50:31.451Z,12.87
2018-07-08T20:53:01.031Z,12.50
2018-07-08T20:55:30.704Z,12.97
2018-07-08T20:58:00.503Z,12.47
2018-07-08T21:00:30.674Z,12.70
2018-07-08T21:03:00.401Z,11.13
2018-07-08T21:05:30.177Z,11.73
2018-07-08T21:08:00.402Z,11.20
2018-07-08T21:10:30.984Z,12.03
2018-07-08T21:13:01.075Z,10.93
2018-07-08T21:15:31.523Z,11.13
2018-07-08T21:18:01.620Z,9.97
2018-07-08T21:20:31.304Z,10.73
2018-07-08T21:23:00.920Z,11.17
2018-07-08T21:25:30.922Z,9.77
2018-07-08T21:28:00.999Z,10.57
2018-07-08T21:30:31.176Z,10.53
2018-07-08T21:33:01.267Z,9.80
2018-07-08T21:35:31.123Z,9.23
2018-07-08T21:38:01.330Z,9.37
2018-07-08T21:40:31.317Z,9.27
2018-07-08T21:43:01.479Z,9.37
2018-07-08T21:45:31.282Z,8.50
2018-07-08T21:48:01.271Z,8.67
2018-07-08T21:50:31.391Z,7.93
2018-07-08T21:53:01.059Z,8.40
2018-07-08T21:55:30.699Z,6.97
2018-07-08T21:58:00.642Z,6.93
2018-07-08T22:00:31.922Z,7.40
2018-07-08T22:03:02.152Z,7.20
2018-07-08T22:05:32.590Z,7.23
2018-07-08T22:08:05.341Z,6.43
2018-07-08T22:10:35.774Z,5.83
2018-07-08T22:13:05.516Z,5.60
2018-07-08T22:15:35.948Z,5.23
2018-07-08T22:18:05.919Z,5.47
2018-07-08T22:20:35.547Z,5.10
2018-07-08T22:23:05.211Z,5.13
2018-07-08T22:25:34.930Z,4.93
2018-07-08T22:28:04.703Z,4.77
2018-07-08T22:30:34.436Z,4.87
2018-07-08T22:33:04.206Z,5.00
2018-07-08T22:35:34.315Z,4.57
2018-07-08T22:38:04.059Z,4.80
2018-07-08T22:40:33.551Z,4.90
2018-07-08T22:43:03.363Z,4.97
2018-07-08T22:45:33.442Z,4.87
2018-07-08T22:48:03.957Z,5.17
2018-07-08T22:50:34.154Z,5.77
2018-07-08T22:53:04.359Z,5.17
2018-07-08T22:55:34.726Z,5.33
2018-07-08T22:58:05.455Z,5.97
2018-07-08T23:00:46.297Z,6.37
2018-07-08T23:04:04.878Z,6.30
2018-07-08T23:06:34.722Z,7.00
2018-07-08T23:09:06.043Z,6.07
2018-07-08T23:11:36.004Z,7.30
2018-07-08T23:14:06.230Z,7.10
2018-07-08T23:16:35.987Z,7.53
2018-07-08T23:19:05.482Z,7.00
2018-07-08T23:21:35.066Z,7.47
2018-07-08T23:24:04.828Z,6.97
2018-07-08T23:26:34.406Z,6.97
2018-07-08T23:29:04.599Z,6.90
2018-07-08T23:31:34.567Z,6.90
2018-07-08T23:34:04.624Z,6.60
2018-07-08T23:36:34.502Z,6.90
2018-07-08T23:39:04.375Z,7.20
2018-07-08T23:41:34.198Z,7.43
2018-07-08T23:44:04.407Z,7.20
2018-07-08T23:46:34.343Z,7.53
2018-07-08T23:49:03.972Z,7.17
2018-07-08T23:51:33.582Z,7.70
2018-07-08T23:54:03.264Z,6.57
2018-07-08T23:56:33.314Z,6.80
2018-07-08T23:59:03.443Z,7.10
